sensor_id;sensor_type;location;lat;lon;timestamp;pressure;altitude;pressure_sealevel;temperature;humidity
80938;BME280;70395;51.382;7.074;2023-06-10T00:02:15;100258.25;;;20.57;47.79
80938;BME280;70395;51.382;7.074;2023-06-10T00:04:42;100256.59;;;20.49;47.53
80938;BME280;70395;51.382;7.074;2023-06-10T00:07:08;100248.66;;;20.41;47.97
80938;BME280;70395;51.382;7.074;2023-06-10T00:09:36;100253.91;;;20.35;47.89
80938;BME280;70395;51.382;7.074;2023-06-10T00:12:07;100253.06;;;20.28;48.08
80938;BME280;70395;51.382;7.074;2023-06-10T00:14:36;100252.06;;;20.22;48.33
80938;BME280;70395;51.382;7.074;2023-06-10T00:17:02;100258.13;;;20.18;48.32
80938;BME280;70395;51.382;7.074;2023-06-10T00:19:28;100259.59;;;20.13;48.20
80938;BME280;70395;51.382;7.074;2023-06-10T00:21:57;100259.34;;;20.08;48.38
80938;BME280;70395;51.382;7.074;2023-06-10T00:24:23;100252.66;;;20.04;48.41
80938;BME280;70395;51.382;7.074;2023-06-10T00:26:49;100251.59;;;19.98;48.47
80938;BME280;70395;51.382;7.074;2023-06-10T00:29:15;100246.78;;;19.94;48.37
80938;BME280;70395;51.382;7.074;2023-06-10T00:31:41;100249.97;;;19.90;49.18
80938;BME280;70395;51.382;7.074;2023-06-10T00:34:08;100247.88;;;19.86;48.91
80938;BME280;70395;51.382;7.074;2023-06-10T00:36:34;100256.44;;;19.83;49.13
80938;BME280;70395;51.382;7.074;2023-06-10T00:39:01;100250.38;;;19.80;49.20
80938;BME280;70395;51.382;7.074;2023-06-10T00:41:28;100251.63;;;19.78;49.06
80938;BME280;70395;51.382;7.074;2023-06-10T00:43:53;100249.31;;;19.75;48.90
80938;BME280;70395;51.382;7.074;2023-06-10T00:46:21;100254.34;;;19.71;49.29
80938;BME280;70395;51.382;7.074;2023-06-10T00:48:47;100258.94;;;19.71;49.27
80938;BME280;70395;51.382;7.074;2023-06-10T00:51:15;100256.63;;;19.67;49.02
80938;BME280;70395;51.382;7.074;2023-06-10T00:53:41;100255.16;;;19.65;49.22
80938;BME280;70395;51.382;7.074;2023-06-10T00:56:08;100258.09;;;19.63;49.34
80938;BME280;70395;51.382;7.074;2023-06-10T00:58:35;100254.94;;;19.60;49.43
80938;BME280;70395;51.382;7.074;2023-06-10T01:01:01;100257.03;;;19.57;49.57
80938;BME280;70395;51.382;7.074;2023-06-10T01:03:27;100267.28;;;19.55;49.71
80938;BME280;70395;51.382;7.074;2023-06-10T01:06:51;100253.88;;;19.47;49.72
80938;BME280;70395;51.382;7.074;2023-06-10T01:09:45;100260.78;;;19.43;49.91
80938;BME280;70395;51.382;7.074;2023-06-10T01:12:34;100261.41;;;19.38;49.57
80938;BME280;70395;51.382;7.074;2023-06-10T01:15:05;100268.53;;;19.39;50.04
80938;BME280;70395;51.382;7.074;2023-06-10T01:17:31;100267.88;;;19.37;49.91
80938;BME280;70395;51.382;7.074;2023-06-10T01:19:57;100270.81;;;19.35;49.97
80938;BME280;70395;51.382;7.074;2023-06-10T01:22:27;100271.41;;;19.31;50.34
80938;BME280;70395;51.382;7.074;2023-06-10T01:24:55;100272.66;;;19.28;50.63
80938;BME280;70395;51.382;7.074;2023-06-10T01:27:30;100282.47;;;19.22;50.56
80938;BME280;70395;51.382;7.074;2023-06-10T01:30:14;100274.94;;;19.18;50.82
80938;BME280;70395;51.382;7.074;2023-06-10T01:32:50;100280.53;;;19.16;50.68
80938;BME280;70395;51.382;7.074;2023-06-10T01:35:17;100278.84;;;19.15;50.71
80938;BME280;70395;51.382;7.074;2023-06-10T01:37:46;100272.59;;;19.15;50.71
80938;BME280;70395;51.382;7.074;2023-06-10T01:40:15;100273.84;;;19.12;51.05
80938;BME280;70395;51.382;7.074;2023-06-10T01:42:41;100275.72;;;19.11;51.07
80938;BME280;70395;51.382;7.074;2023-06-10T01:45:07;100276.75;;;19.10;51.33
80938;BME280;70395;51.382;7.074;2023-06-10T01:47:33;100277.59;;;19.11;51.00
80938;BME280;70395;51.382;7.074;2023-06-10T01:49:59;100268.59;;;19.10;51.38
80938;BME280;70395;51.382;7.074;2023-06-10T01:52:25;100272.38;;;19.09;51.09
80938;BME280;70395;51.382;7.074;2023-06-10T01:54:51;100265.25;;;19.08;51.05
80938;BME280;70395;51.382;7.074;2023-06-10T01:57:17;100270.06;;;19.06;51.48
80938;BME280;70395;51.382;7.074;2023-06-10T01:59:43;100266.72;;;19.04;51.57
80938;BME280;70395;51.382;7.074;2023-06-10T02:02:10;100272.31;;;19.02;52.14
80938;BME280;70395;51.382;7.074;2023-06-10T02:04:36;100282.78;;;18.99;51.90
80938;BME280;70395;51.382;7.074;2023-06-10T02:07:02;100280.66;;;18.94;52.16
80938;BME280;70395;51.382;7.074;2023-06-10T02:09:30;100287.56;;;18.90;52.28
80938;BME280;70395;51.382;7.074;2023-06-10T02:11:57;100287.31;;;18.85;52.08
80938;BME280;70395;51.382;7.074;2023-06-10T02:14:23;100280.81;;;18.79;52.55
80938;BME280;70395;51.382;7.074;2023-06-10T02:16:48;100287.06;;;18.73;52.32
80938;BME280;70395;51.382;7.074;2023-06-10T02:19:14;100287.00;;;18.66;52.83
80938;BME280;70395;51.382;7.074;2023-06-10T02:21:40;100283.22;;;18.60;52.35
80938;BME280;70395;51.382;7.074;2023-06-10T02:24:06;100281.94;;;18.56;52.43
80938;BME280;70395;51.382;7.074;2023-06-10T02:26:32;100286.09;;;18.52;52.89
80938;BME280;70395;51.382;7.074;2023-06-10T02:28:58;100281.88;;;18.49;52.96
80938;BME280;70395;51.382;7.074;2023-06-10T02:31:23;100285.00;;;18.46;53.02
80938;BME280;70395;51.382;7.074;2023-06-10T02:33:50;100286.06;;;18.45;52.66
80938;BME280;70395;51.382;7.074;2023-06-10T02:36:16;100285.41;;;18.43;53.39
80938;BME280;70395;51.382;7.074;2023-06-10T02:38:42;100294.59;;;18.42;53.09
80938;BME280;70395;51.382;7.074;2023-06-10T02:41:08;100296.03;;;18.38;53.60
80938;BME280;70395;51.382;7.074;2023-06-10T02:43:34;100285.56;;;18.34;53.74
80938;BME280;70395;51.382;7.074;2023-06-10T02:45:59;100295.13;;;18.30;53.24
80938;BME280;70395;51.382;7.074;2023-06-10T02:48:27;100286.53;;;18.27;53.66
80938;BME280;70395;51.382;7.074;2023-06-10T02:50:53;100279.19;;;18.20;53.56
80938;BME280;70395;51.382;7.074;2023-06-10T02:53:19;100277.22;;;18.14;53.65
80938;BME280;70395;51.382;7.074;2023-06-10T02:55:45;100283.25;;;18.09;54.29
80938;BME280;70395;51.382;7.074;2023-06-10T02:58:10;100280.28;;;18.04;54.40
80938;BME280;70395;51.382;7.074;2023-06-10T03:00:36;100274.63;;;17.99;54.44
80938;BME280;70395;51.382;7.074;2023-06-10T03:03:03;100283.31;;;17.94;54.56
80938;BME280;70395;51.382;7.074;2023-06-10T03:05:31;100280.38;;;17.89;54.64
80938;BME280;70395;51.382;7.074;2023-06-10T03:07:57;100280.97;;;17.84;54.76
80938;BME280;70395;51.382;7.074;2023-06-10T03:10:24;100288.66;;;17.81;54.68
80938;BME280;70395;51.382;7.074;2023-06-10T03:12:50;100287.53;;;17.75;54.88
80938;BME280;70395;51.382;7.074;2023-06-10T03:15:15;100279.19;;;17.70;55.02
80938;BME280;70395;51.382;7.074;2023-06-10T03:17:41;100278.25;;;17.62;55.17
80938;BME280;70395;51.382;7.074;2023-06-10T03:20:08;100285.47;;;17.55;55.48
80938;BME280;70395;51.382;7.074;2023-06-10T03:22:35;100286.06;;;17.50;55.42
80938;BME280;70395;51.382;7.074;2023-06-10T03:25:01;100287.47;;;17.46;55.82
80938;BME280;70395;51.382;7.074;2023-06-10T03:27:27;100287.84;;;17.43;55.70
80938;BME280;70395;51.382;7.074;2023-06-10T03:29:54;100286.56;;;17.39;55.80
80938;BME280;70395;51.382;7.074;2023-06-10T03:32:20;100285.91;;;17.37;56.39
80938;BME280;70395;51.382;7.074;2023-06-10T03:34:46;100296.13;;;17.35;56.27
80938;BME280;70395;51.382;7.074;2023-06-10T03:37:13;100294.63;;;17.32;56.58
80938;BME280;70395;51.382;7.074;2023-06-10T03:39:39;100288.56;;;17.30;56.40
80938;BME280;70395;51.382;7.074;2023-06-10T03:42:06;100292.28;;;17.29;56.45
80938;BME280;70395;51.382;7.074;2023-06-10T03:44:32;100295.00;;;17.29;56.21
80938;BME280;70395;51.382;7.074;2023-06-10T03:46:57;100296.69;;;17.30;56.62
80938;BME280;70395;51.382;7.074;2023-06-10T03:49:23;100300.03;;;17.32;56.56
80938;BME280;70395;51.382;7.074;2023-06-10T03:51:51;100303.41;;;17.34;56.59
80938;BME280;70395;51.382;7.074;2023-06-10T03:54:17;100298.81;;;17.35;56.34
80938;BME280;70395;51.382;7.074;2023-06-10T03:56:42;100308.44;;;17.37;56.96
80938;BME280;70395;51.382;7.074;2023-06-10T03:59:08;100315.34;;;17.40;56.78
80938;BME280;70395;51.382;7.074;2023-06-10T04:01:34;100306.81;;;17.43;56.58
80938;BME280;70395;51.382;7.074;2023-06-10T04:04:03;100309.34;;;17.44;56.55
80938;BME280;70395;51.382;7.074;2023-06-10T04:06:29;100311.03;;;17.45;56.92
80938;BME280;70395;51.382;7.074;2023-06-10T04:08:55;100307.09;;;17.48;56.83
80938;BME280;70395;51.382;7.074;2023-06-10T04:11:24;100309.22;;;17.53;56.45
80938;BME280;70395;51.382;7.074;2023-06-10T04:13:50;100307.63;;;17.59;56.67
80938;BME280;70395;51.382;7.074;2023-06-10T04:16:16;100311.44;;;17.64;56.77
80938;BME280;70395;51.382;7.074;2023-06-10T04:18:42;100312.72;;;17.69;56.48
80938;BME280;70395;51.382;7.074;2023-06-10T04:21:08;100320.28;;;17.73;56.93
80938;BME280;70395;51.382;7.074;2023-06-10T04:23:35;100321.19;;;17.81;56.70
80938;BME280;70395;51.382;7.074;2023-06-10T04:26:03;100323.97;;;17.87;56.23
80938;BME280;70395;51.382;7.074;2023-06-10T04:28:28;100318.59;;;17.94;56.45
80938;BME280;70395;51.382;7.074;2023-06-10T04:30:54;100324.94;;;18.01;56.44
80938;BME280;70395;51.382;7.074;2023-06-10T04:33:20;100326.66;;;18.09;56.79
80938;BME280;70395;51.382;7.074;2023-06-10T04:35:45;100325.88;;;18.16;56.57
80938;BME280;70395;51.382;7.074;2023-06-10T04:38:13;100332.25;;;18.23;56.46
80938;BME280;70395;51.382;7.074;2023-06-10T04:40:39;100330.41;;;18.30;56.59
80938;BME280;70395;51.382;7.074;2023-06-10T04:43:05;100331.31;;;18.38;56.10
80938;BME280;70395;51.382;7.074;2023-06-10T04:45:31;100329.47;;;18.45;56.13
80938;BME280;70395;51.382;7.074;2023-06-10T04:47:57;100333.72;;;18.54;55.96
80938;BME280;70395;51.382;7.074;2023-06-10T04:50:23;100338.78;;;18.64;56.51
80938;BME280;70395;51.382;7.074;2023-06-10T04:52:49;100329.03;;;18.70;56.66
80938;BME280;70395;51.382;7.074;2023-06-10T04:55:16;100331.56;;;18.78;56.40
80938;BME280;70395;51.382;7.074;2023-06-10T04:57:41;100333.69;;;18.83;56.30
80938;BME280;70395;51.382;7.074;2023-06-10T05:00:08;100328.09;;;18.91;56.39
80938;BME280;70395;51.382;7.074;2023-06-10T05:02:34;100340.69;;;18.99;56.33
80938;BME280;70395;51.382;7.074;2023-06-10T05:05:00;100331.31;;;19.09;56.31
80938;BME280;70395;51.382;7.074;2023-06-10T05:07:26;100328.88;;;19.21;56.19
80938;BME280;70395;51.382;7.074;2023-06-10T05:09:51;100333.09;;;19.30;55.67
80938;BME280;70395;51.382;7.074;2023-06-10T05:12:17;100332.50;;;19.42;55.55
80938;BME280;70395;51.382;7.074;2023-06-10T05:14:43;100329.38;;;19.52;55.42
80938;BME280;70395;51.382;7.074;2023-06-10T05:17:10;100332.56;;;19.62;55.46
80938;BME280;70395;51.382;7.074;2023-06-10T05:19:37;100331.31;;;19.72;55.19
80938;BME280;70395;51.382;7.074;2023-06-10T05:22:03;100337.22;;;19.82;55.32
80938;BME280;70395;51.382;7.074;2023-06-10T05:24:29;100334.72;;;19.94;55.31
80938;BME280;70395;51.382;7.074;2023-06-10T05:26:55;100337.00;;;20.04;54.81
80938;BME280;70395;51.382;7.074;2023-06-10T05:29:20;100335.38;;;20.17;54.76
80938;BME280;70395;51.382;7.074;2023-06-10T05:31:46;100332.25;;;20.27;54.30
80938;BME280;70395;51.382;7.074;2023-06-10T05:34:12;100331.81;;;20.36;54.34
80938;BME280;70395;51.382;7.074;2023-06-10T05:36:38;100334.13;;;20.46;54.14
80938;BME280;70395;51.382;7.074;2023-06-10T05:39:04;100337.25;;;20.57;53.65
80938;BME280;70395;51.382;7.074;2023-06-10T05:41:29;100333.44;;;20.65;54.00
80938;BME280;70395;51.382;7.074;2023-06-10T05:43:56;100341.81;;;20.70;53.49
80938;BME280;70395;51.382;7.074;2023-06-10T05:46:21;100339.28;;;20.75;53.87
80938;BME280;70395;51.382;7.074;2023-06-10T05:48:47;100338.22;;;20.83;53.02
80938;BME280;70395;51.382;7.074;2023-06-10T05:51:13;100342.41;;;20.92;53.48
80938;BME280;70395;51.382;7.074;2023-06-10T05:53:39;100333.81;;;21.02;53.20
80938;BME280;70395;51.382;7.074;2023-06-10T05:56:05;100333.75;;;21.16;52.52
80938;BME280;70395;51.382;7.074;2023-06-10T05:58:31;100334.72;;;21.29;52.54
80938;BME280;70395;51.382;7.074;2023-06-10T06:00:57;100338.25;;;21.43;52.67
80938;BME280;70395;51.382;7.074;2023-06-10T06:03:22;100335.44;;;21.56;52.05
80938;BME280;70395;51.382;7.074;2023-06-10T06:05:48;100347.94;;;21.71;51.91
80938;BME280;70395;51.382;7.074;2023-06-10T06:08:14;100348.50;;;21.87;52.00
80938;BME280;70395;51.382;7.074;2023-06-10T06:10:43;100339.16;;;22.01;51.43
80938;BME280;70395;51.382;7.074;2023-06-10T06:13:08;100345.34;;;22.15;51.43
80938;BME280;70395;51.382;7.074;2023-06-10T06:15:34;100349.66;;;22.30;50.81
80938;BME280;70395;51.382;7.074;2023-06-10T06:18:00;100339.91;;;22.41;50.97
80938;BME280;70395;51.382;7.074;2023-06-10T06:20:26;100345.22;;;22.55;50.15
80938;BME280;70395;51.382;7.074;2023-06-10T06:22:51;100342.56;;;22.67;49.87
80938;BME280;70395;51.382;7.074;2023-06-10T06:25:17;100341.88;;;22.78;49.71
80938;BME280;70395;51.382;7.074;2023-06-10T06:27:43;100345.75;;;22.89;49.68
80938;BME280;70395;51.382;7.074;2023-06-10T06:30:09;100344.16;;;23.00;49.07
80938;BME280;70395;51.382;7.074;2023-06-10T06:32:35;100345.28;;;23.11;48.95
80938;BME280;70395;51.382;7.074;2023-06-10T06:35:01;100351.41;;;23.25;48.81
80938;BME280;70395;51.382;7.074;2023-06-10T06:37:27;100349.56;;;23.38;48.84
80938;BME280;70395;51.382;7.074;2023-06-10T06:39:54;100349.19;;;23.53;48.12
80938;BME280;70395;51.382;7.074;2023-06-10T06:42:20;100355.28;;;23.67;48.02
80938;BME280;70395;51.382;7.074;2023-06-10T06:44:47;100353.69;;;23.78;47.56
80938;BME280;70395;51.382;7.074;2023-06-10T06:47:13;100348.69;;;23.87;46.98
80938;BME280;70395;51.382;7.074;2023-06-10T06:49:39;100351.69;;;23.98;47.85
80938;BME280;70395;51.382;7.074;2023-06-10T06:52:05;100341.59;;;24.10;47.67
80938;BME280;70395;51.382;7.074;2023-06-10T06:54:31;100352.72;;;24.27;46.44
80938;BME280;70395;51.382;7.074;2023-06-10T06:56:57;100353.31;;;24.41;45.68
80938;BME280;70395;51.382;7.074;2023-06-10T06:59:23;100353.91;;;24.56;45.67
80938;BME280;70395;51.382;7.074;2023-06-10T07:01:51;100358.06;;;24.70;45.77
80938;BME280;70395;51.382;7.074;2023-06-10T07:04:17;100361.91;;;24.81;44.49
80938;BME280;70395;51.382;7.074;2023-06-10T07:06:42;100367.34;;;24.93;44.29
80938;BME280;70395;51.382;7.074;2023-06-10T07:09:08;100363.78;;;25.05;43.86
80938;BME280;70395;51.382;7.074;2023-06-10T07:11:35;100360.19;;;25.16;43.59
80938;BME280;70395;51.382;7.074;2023-06-10T07:14:00;100361.22;;;25.27;43.56
80938;BME280;70395;51.382;7.074;2023-06-10T07:16:26;100363.09;;;25.39;43.01
80938;BME280;70395;51.382;7.074;2023-06-10T07:18:53;100363.28;;;25.49;42.72
80938;BME280;70395;51.382;7.074;2023-06-10T07:21:19;100358.00;;;25.60;42.61
80938;BME280;70395;51.382;7.074;2023-06-10T07:23:46;100364.28;;;25.72;42.53
80938;BME280;70395;51.382;7.074;2023-06-10T07:26:12;100363.16;;;25.85;41.97
80938;BME280;70395;51.382;7.074;2023-06-10T07:28:42;100358.41;;;25.98;41.62
80938;BME280;70395;51.382;7.074;2023-06-10T07:31:08;100358.69;;;26.14;41.32
80938;BME280;70395;51.382;7.074;2023-06-10T07:33:35;100359.44;;;26.26;40.53
80938;BME280;70395;51.382;7.074;2023-06-10T07:36:02;100359.81;;;26.35;40.36
80938;BME280;70395;51.382;7.074;2023-06-10T07:38:28;100356.94;;;26.42;39.69
80938;BME280;70395;51.382;7.074;2023-06-10T07:40:54;100355.63;;;26.45;39.17
80938;BME280;70395;51.382;7.074;2023-06-10T07:43:19;100350.94;;;26.45;39.84
80938;BME280;70395;51.382;7.074;2023-06-10T07:45:45;100347.50;;;26.55;40.03
80938;BME280;70395;51.382;7.074;2023-06-10T07:48:11;100344.06;;;26.65;39.73
80938;BME280;70395;51.382;7.074;2023-06-10T07:50:52;100344.88;;;26.83;38.89
80938;BME280;70395;51.382;7.074;2023-06-10T07:53:18;100345.31;;;26.97;39.76
80938;BME280;70395;51.382;7.074;2023-06-10T07:55:44;100342.44;;;27.09;38.00
80938;BME280;70395;51.382;7.074;2023-06-10T07:58:10;100353.28;;;27.16;37.99
80938;BME280;70395;51.382;7.074;2023-06-10T08:00:35;100351.09;;;27.18;37.48
80938;BME280;70395;51.382;7.074;2023-06-10T08:03:01;100363.81;;;27.24;37.93
80938;BME280;70395;51.382;7.074;2023-06-10T08:05:27;100352.69;;;27.36;38.09
80938;BME280;70395;51.382;7.074;2023-06-10T08:07:52;100352.84;;;27.52;37.19
80938;BME280;70395;51.382;7.074;2023-06-10T08:10:18;100354.59;;;27.63;37.46
80938;BME280;70395;51.382;7.074;2023-06-10T08:12:44;100356.63;;;27.73;36.91
80938;BME280;70395;51.382;7.074;2023-06-10T08:15:10;100353.63;;;27.75;36.32
80938;BME280;70395;51.382;7.074;2023-06-10T08:17:38;100347.38;;;27.80;36.55
80938;BME280;70395;51.382;7.074;2023-06-10T08:20:05;100357.91;;;27.88;36.62
80938;BME280;70395;51.382;7.074;2023-06-10T08:22:33;100368.50;;;28.02;36.76
80938;BME280;70395;51.382;7.074;2023-06-10T08:24:59;100358.75;;;28.21;36.06
80938;BME280;70395;51.382;7.074;2023-06-10T08:27:25;100369.34;;;28.40;35.40
80938;BME280;70395;51.382;7.074;2023-06-10T08:29:50;100372.81;;;28.58;35.63
80938;BME280;70395;51.382;7.074;2023-06-10T08:32:16;100367.66;;;28.77;35.49
80938;BME280;70395;51.382;7.074;2023-06-10T08:34:42;100370.47;;;28.93;35.55
80938;BME280;70395;51.382;7.074;2023-06-10T08:37:08;100362.31;;;29.09;35.40
80938;BME280;70395;51.382;7.074;2023-06-10T08:39:33;100362.91;;;29.21;33.83
80938;BME280;70395;51.382;7.074;2023-06-10T08:42:23;100360.72;;;29.23;34.12
80938;BME280;70395;51.382;7.074;2023-06-10T08:44:55;100364.91;;;29.37;34.09
80938;BME280;70395;51.382;7.074;2023-06-10T08:47:24;100367.38;;;29.43;33.43
80938;BME280;70395;51.382;7.074;2023-06-10T08:49:51;100369.59;;;29.41;33.05
80938;BME280;70395;51.382;7.074;2023-06-10T08:52:20;100362.13;;;29.31;32.93
80938;BME280;70395;51.382;7.074;2023-06-10T08:55:09;100362.06;;;29.21;33.45
80938;BME280;70395;51.382;7.074;2023-06-10T08:57:36;100363.50;;;29.29;33.93
80938;BME280;70395;51.382;7.074;2023-06-10T09:00:03;100357.69;;;29.36;33.12
80938;BME280;70395;51.382;7.074;2023-06-10T09:02:32;100357.69;;;29.36;32.60
80938;BME280;70395;51.382;7.074;2023-06-10T09:05:01;100356.34;;;29.43;33.18
80938;BME280;70395;51.382;7.074;2023-06-10T09:07:27;100359.13;;;29.54;33.00
80938;BME280;70395;51.382;7.074;2023-06-10T09:09:58;100359.41;;;29.63;32.83
80938;BME280;70395;51.382;7.074;2023-06-10T09:12:25;100360.84;;;29.76;33.58
80938;BME280;70395;51.382;7.074;2023-06-10T09:14:50;100357.28;;;29.91;31.97
80938;BME280;70395;51.382;7.074;2023-06-10T09:17:17;100353.69;;;30.01;33.00
80938;BME280;70395;51.382;7.074;2023-06-10T09:19:44;100358.34;;;30.21;32.72
80938;BME280;70395;51.382;7.074;2023-06-10T09:22:11;100346.72;;;30.51;31.88
80938;BME280;70395;51.382;7.074;2023-06-10T09:24:37;100347.50;;;30.72;31.08
80938;BME280;70395;51.382;7.074;2023-06-10T09:27:06;100350.94;;;31.14;31.25
80938;BME280;70395;51.382;7.074;2023-06-10T09:29:54;100349.28;;;32.05;30.99
80938;BME280;70395;51.382;7.074;2023-06-10T09:32:21;100347.34;;;33.09;29.00
80938;BME280;70395;51.382;7.074;2023-06-10T09:34:48;100359.31;;;34.20;27.59
80938;BME280;70395;51.382;7.074;2023-06-10T09:37:25;100351.50;;;35.35;26.61
80938;BME280;70395;51.382;7.074;2023-06-10T09:40:07;100353.31;;;36.32;25.07
80938;BME280;70395;51.382;7.074;2023-06-10T09:42:35;100353.75;;;37.07;23.94
80938;BME280;70395;51.382;7.074;2023-06-10T09:45:06;100358.25;;;37.70;23.40
80938;BME280;70395;51.382;7.074;2023-06-10T09:47:32;100348.78;;;38.19;22.55
80938;BME280;70395;51.382;7.074;2023-06-10T09:49:58;100348.13;;;38.62;21.43
80938;BME280;70395;51.382;7.074;2023-06-10T09:52:26;100343.31;;;38.71;21.12
80938;BME280;70395;51.382;7.074;2023-06-10T09:55:01;100342.19;;;38.94;21.67
80938;BME280;70395;51.382;7.074;2023-06-10T09:57:32;100341.78;;;39.26;21.42
80938;BME280;70395;51.382;7.074;2023-06-10T10:00:04;100345.72;;;39.68;20.98
80938;BME280;70395;51.382;7.074;2023-06-10T10:02:30;100353.00;;;40.15;19.96
80938;BME280;70395;51.382;7.074;2023-06-10T10:05:03;100340.44;;;40.47;19.87
80938;BME280;70395;51.382;7.074;2023-06-10T10:07:32;100344.97;;;40.64;19.61
80938;BME280;70395;51.382;7.074;2023-06-10T10:09:57;100349.44;;;40.90;19.35
80938;BME280;70395;51.382;7.074;2023-06-10T10:12:24;100352.41;;;41.23;19.36
80938;BME280;70395;51.382;7.074;2023-06-10T10:14:51;100339.81;;;41.45;18.22
80938;BME280;70395;51.382;7.074;2023-06-10T10:17:19;100339.41;;;41.30;18.13
80938;BME280;70395;51.382;7.074;2023-06-10T10:19:54;100341.59;;;41.37;18.59
80938;BME280;70395;51.382;7.074;2023-06-10T10:22:26;100342.91;;;41.69;17.68
80938;BME280;70395;51.382;7.074;2023-06-10T10:25:02;100338.56;;;41.87;17.56
80938;BME280;70395;51.382;7.074;2023-06-10T10:27:36;100345.34;;;42.15;17.67
80938;BME280;70395;51.382;7.074;2023-06-10T10:30:08;100351.69;;;42.28;17.23
80938;BME280;70395;51.382;7.074;2023-06-10T10:33:05;100337.50;;;42.08;17.46
80938;BME280;70395;51.382;7.074;2023-06-10T10:35:33;100333.53;;;42.09;16.99
80938;BME280;70395;51.382;7.074;2023-06-10T10:38:00;100332.97;;;42.04;16.52
80938;BME280;70395;51.382;7.074;2023-06-10T10:40:29;100332.56;;;41.73;16.85
80938;BME280;70395;51.382;7.074;2023-06-10T10:42:56;100329.38;;;41.74;17.40
80938;BME280;70395;51.382;7.074;2023-06-10T10:45:23;100334.16;;;42.03;16.98
80938;BME280;70395;51.382;7.074;2023-06-10T10:47:54;100327.81;;;42.22;16.17
80938;BME280;70395;51.382;7.074;2023-06-10T10:50:22;100325.44;;;42.08;16.16
80938;BME280;70395;51.382;7.074;2023-06-10T10:53:05;100324.00;;;42.14;16.95
80938;BME280;70395;51.382;7.074;2023-06-10T10:55:32;100315.72;;;42.54;16.88
80938;BME280;70395;51.382;7.074;2023-06-10T10:58:07;100316.03;;;43.05;16.45
80938;BME280;70395;51.382;7.074;2023-06-10T11:00:43;100321.91;;;43.55;16.06
80938;BME280;70395;51.382;7.074;2023-06-10T11:03:15;100312.59;;;43.98;15.73
80938;BME280;70395;51.382;7.074;2023-06-10T11:05:47;100320.22;;;44.45;15.23
80938;BME280;70395;51.382;7.074;2023-06-10T11:10:59;100310.25;;;44.82;14.28
80938;BME280;70395;51.382;7.074;2023-06-10T11:13:27;100300.91;;;45.05;13.95
80938;BME280;70395;51.382;7.074;2023-06-10T11:15:58;100307.88;;;45.15;14.32
80938;BME280;70395;51.382;7.074;2023-06-10T11:18:35;100303.50;;;45.21;13.99
80938;BME280;70395;51.382;7.074;2023-06-10T11:21:05;100300.72;;;45.25;13.75
80938;BME280;70395;51.382;7.074;2023-06-10T11:23:42;100295.47;;;45.27;13.66
80938;BME280;70395;51.382;7.074;2023-06-10T11:29:07;100295.81;;;45.22;13.28
80938;BME280;70395;51.382;7.074;2023-06-10T11:31:49;100289.75;;;45.20;12.95
80938;BME280;70395;51.382;7.074;2023-06-10T11:34:21;100287.19;;;45.11;13.25
80938;BME280;70395;51.382;7.074;2023-06-10T11:36:49;100294.50;;;44.81;13.53
80938;BME280;70395;51.382;7.074;2023-06-10T11:39:15;100283.06;;;44.70;13.86
80938;BME280;70395;51.382;7.074;2023-06-10T11:41:41;100289.13;;;44.45;13.71
80938;BME280;70395;51.382;7.074;2023-06-10T11:44:14;100278.16;;;43.89;14.62
80938;BME280;70395;51.382;7.074;2023-06-10T11:46:40;100288.22;;;43.43;14.57
80938;BME280;70395;51.382;7.074;2023-06-10T11:49:08;100286.72;;;43.49;14.59
80938;BME280;70395;51.382;7.074;2023-06-10T11:51:37;100277.91;;;43.74;14.21
80938;BME280;70395;51.382;7.074;2023-06-10T11:54:05;100275.06;;;43.98;13.80
80938;BME280;70395;51.382;7.074;2023-06-10T11:56:31;100276.31;;;44.24;14.03
80938;BME280;70395;51.382;7.074;2023-06-10T11:59:05;100273.50;;;44.51;13.41
80938;BME280;70395;51.382;7.074;2023-06-10T12:01:38;100275.50;;;44.78;13.22
80938;BME280;70395;51.382;7.074;2023-06-10T12:04:10;100277.88;;;45.07;13.12
80938;BME280;70395;51.382;7.074;2023-06-10T12:09:28;100270.28;;;45.53;13.25
80938;BME280;70395;51.382;7.074;2023-06-10T12:12:00;100277.78;;;45.76;12.53
80938;BME280;70395;51.382;7.074;2023-06-10T12:14:58;100274.50;;;45.70;12.13
80938;BME280;70395;51.382;7.074;2023-06-10T12:19:57;100271.75;;;45.01;12.75
80938;BME280;70395;51.382;7.074;2023-06-10T12:22:23;100260.81;;;44.99;12.94
80938;BME280;70395;51.382;7.074;2023-06-10T12:25:04;100259.81;;;45.15;13.01
80938;BME280;70395;51.382;7.074;2023-06-10T12:27:33;100259.72;;;45.42;13.04
80938;BME280;70395;51.382;7.074;2023-06-10T12:30:01;100254.56;;;45.55;12.36
80938;BME280;70395;51.382;7.074;2023-06-10T12:32:47;100254.06;;;45.46;12.50
80938;BME280;70395;51.382;7.074;2023-06-10T12:35:17;100255.97;;;45.34;12.72
80938;BME280;70395;51.382;7.074;2023-06-10T12:38:04;100254.09;;;45.11;12.78
80938;BME280;70395;51.382;7.074;2023-06-10T12:40:36;100255.06;;;44.92;12.82
80938;BME280;70395;51.382;7.074;2023-06-10T12:43:03;100251.00;;;44.89;12.47
80938;BME280;70395;51.382;7.074;2023-06-10T12:45:37;100253.94;;;44.97;12.83
80938;BME280;70395;51.382;7.074;2023-06-10T12:48:22;100236.63;;;45.02;12.82
80938;BME280;70395;51.382;7.074;2023-06-10T12:50:56;100243.59;;;45.12;12.25
80938;BME280;70395;51.382;7.074;2023-06-10T12:53:24;100239.41;;;44.98;12.54
80938;BME280;70395;51.382;7.074;2023-06-10T12:55:52;100242.34;;;45.09;12.70
80938;BME280;70395;51.382;7.074;2023-06-10T12:58:20;100247.94;;;45.40;12.75
80938;BME280;70395;51.382;7.074;2023-06-10T13:00:47;100241.88;;;45.38;12.59
80938;BME280;70395;51.382;7.074;2023-06-10T13:03:14;100246.41;;;45.47;12.40
80938;BME280;70395;51.382;7.074;2023-06-10T13:05:41;100243.59;;;45.50;12.26
80938;BME280;70395;51.382;7.074;2023-06-10T13:08:08;100233.06;;;45.47;12.35